createdAt,value
2019-01-24T00:01:45.911Z,88.77
2019-01-24T00:04:16.743Z,91.20
2019-01-24T00:06:41.076Z,86.73
2019-01-24T00:09:07.914Z,84.57
2019-01-24T00:11:34.790Z,91.57
2019-01-24T00:14:01.864Z,87.37
2019-01-24T00:16:28.507Z,99.47
2019-01-24T00:18:55.268Z,77.60
2019-01-24T00:21:21.902Z,89.77
2019-01-24T00:23:48.490Z,86.23
2019-01-24T00:26:15.096Z,87.53
2019-01-24T00:28:42.287Z,83.37
2019-01-24T00:31:09.491Z,96.07
2019-01-24T00:33:36.132Z,89.07
2019-01-24T00:36:02.953Z,92.47
2019-01-24T00:38:29.570Z,88.63
2019-01-24T00:40:56.246Z,77.07
2019-01-24T00:43:22.983Z,95.87
2019-01-24T00:45:49.742Z,94.10
2019-01-24T00:48:16.272Z,84.13
2019-01-24T00:50:43.592Z,82.27
2019-01-24T00:53:10.352Z,91.00
2019-01-24T00:55:37.205Z,93.80
2019-01-24T00:58:04.224Z,85.77
2019-01-24T01:00:30.872Z,90.07
2019-01-24T01:02:57.411Z,87.60
2019-01-24T01:05:24.059Z,95.77
2019-01-24T01:07:51.076Z,89.17
2019-01-24T01:10:17.789Z,82.00
2019-01-24T01:12:44.457Z,98.63
2019-01-24T01:15:16.165Z,90.53
2019-01-24T01:17:43.359Z,85.77
2019-01-24T01:20:15.318Z,98.13
2019-01-24T01:22:42.121Z,103.90
2019-01-24T01:25:10.019Z,93.87
2019-01-24T01:27:36.704Z,98.67
2019-01-24T01:30:06.006Z,81.70
2019-01-24T01:32:32.631Z,92.57
2019-01-24T01:34:59.160Z,89.33
2019-01-24T01:37:25.833Z,107.20
2019-01-24T01:39:52.379Z,87.67
2019-01-24T01:42:18.924Z,77.87
2019-01-24T01:44:46.120Z,105.67
2019-01-24T01:47:12.648Z,96.63
2019-01-24T01:49:40.092Z,89.70
2019-01-24T01:52:06.995Z,85.40
2019-01-24T01:54:33.569Z,91.63
2019-01-24T01:57:00.315Z,81.43
2019-01-24T01:59:26.923Z,86.27
2019-01-24T02:01:53.502Z,84.53
2019-01-24T02:04:20.072Z,86.57
2019-01-24T02:06:46.981Z,78.73
2019-01-24T02:09:13.570Z,78.93
2019-01-24T02:11:40.196Z,87.83
2019-01-24T02:14:06.837Z,79.13
2019-01-24T02:16:33.845Z,83.57
2019-01-24T02:19:00.574Z,97.83
2019-01-24T02:21:28.483Z,81.00
2019-01-24T02:23:54.997Z,86.13
2019-01-24T02:26:21.499Z,84.50
2019-01-24T02:28:48.017Z,82.87
2019-01-24T02:31:14.615Z,77.33
2019-01-24T02:33:41.144Z,75.90
2019-01-24T02:36:07.862Z,75.43
2019-01-24T02:38:34.678Z,85.03
2019-01-24T02:41:01.330Z,77.30
2019-01-24T02:43:27.856Z,83.37
2019-01-24T02:45:54.448Z,77.33
2019-01-24T02:48:20.987Z,81.57
2019-01-24T02:50:47.919Z,79.10
2019-01-24T02:53:14.448Z,81.27
2019-01-24T02:55:41.056Z,89.50
2019-01-24T02:58:07.625Z,79.07
2019-01-24T03:00:34.175Z,81.97
2019-01-24T03:03:00.836Z,83.27
2019-01-24T03:05:27.420Z,83.57
2019-01-24T03:07:53.947Z,72.00
2019-01-24T03:10:20.639Z,70.80
2019-01-24T03:12:47.807Z,75.60
2019-01-24T03:15:19.282Z,80.03
2019-01-24T03:17:46.184Z,76.77
2019-01-24T03:20:13.123Z,80.00
2019-01-24T03:22:39.707Z,71.37
2019-01-24T03:25:06.824Z,75.07
2019-01-24T03:27:33.597Z,90.33
2019-01-24T03:30:00.445Z,75.23
2019-01-24T03:32:27.288Z,71.50
2019-01-24T03:34:53.931Z,80.50
2019-01-24T03:37:20.538Z,74.87
2019-01-24T03:39:47.118Z,82.10
2019-01-24T03:42:13.629Z,88.23
2019-01-24T03:44:40.350Z,81.90
2019-01-24T03:47:06.937Z,80.43
2019-01-24T03:49:33.469Z,93.73
2019-01-24T03:51:59.965Z,83.37
2019-01-24T03:54:26.475Z,82.60
2019-01-24T03:56:53.552Z,72.07
2019-01-24T03:59:20.268Z,79.40
2019-01-24T04:01:47.058Z,74.83
2019-01-24T04:04:14.075Z,79.80
2019-01-24T04:06:41.015Z,71.57
2019-01-24T04:09:07.727Z,73.10
2019-01-24T04:11:34.213Z,77.83
2019-01-24T04:14:00.745Z,80.80
2019-01-24T04:16:27.660Z,74.00
2019-01-24T04:18:54.773Z,76.20
2019-01-24T04:21:21.246Z,73.43
2019-01-24T04:23:47.849Z,73.57
2019-01-24T04:26:14.982Z,83.13
2019-01-24T04:28:41.469Z,74.33
2019-01-24T04:31:07.972Z,73.83
2019-01-24T04:33:34.509Z,79.43
2019-01-24T04:36:01.064Z,73.30
2019-01-24T04:38:27.822Z,83.47
2019-01-24T04:40:54.497Z,87.03
2019-01-24T04:43:21.592Z,78.70
2019-01-24T04:45:48.273Z,70.93
2019-01-24T04:48:16.062Z,66.67
2019-01-24T04:50:42.589Z,74.47
2019-01-24T04:53:09.630Z,67.40
2019-01-24T04:55:37.453Z,69.27
2019-01-24T04:58:04.012Z,79.50
2019-01-24T05:00:30.800Z,71.93
2019-01-24T05:02:57.736Z,68.17
2019-01-24T05:05:28.039Z,75.43
2019-01-24T05:07:52.713Z,88.00
2019-01-24T05:10:19.810Z,72.80
2019-01-24T05:12:46.308Z,66.23
2019-01-24T05:15:14.023Z,79.07
2019-01-24T05:17:40.551Z,73.13
2019-01-24T05:20:08.931Z,68.97
2019-01-24T05:22:35.466Z,76.97
2019-01-24T05:25:02.263Z,66.03
2019-01-24T05:27:30.866Z,70.60
2019-01-24T05:29:57.405Z,75.33
2019-01-24T05:32:23.929Z,73.47
2019-01-24T05:34:50.509Z,72.93
2019-01-24T05:37:19.505Z,69.17
2019-01-24T05:39:46.172Z,67.57
2019-01-24T05:42:13.767Z,69.03
2019-01-24T05:44:40.500Z,70.17
2019-01-24T05:47:07.038Z,74.97
2019-01-24T05:49:33.866Z,73.13
2019-01-24T05:52:00.460Z,71.20
2019-01-24T05:54:26.962Z,79.23
2019-01-24T05:56:55.578Z,80.73
2019-01-24T05:59:22.234Z,83.67
2019-01-24T06:01:49.653Z,65.80
2019-01-24T06:04:16.290Z,72.27
2019-01-24T06:06:45.923Z,79.10
2019-01-24T06:09:12.421Z,76.73
2019-01-24T06:11:39.335Z,73.47
2019-01-24T06:14:06.011Z,71.50
2019-01-24T06:16:33.142Z,73.73
2019-01-24T06:18:59.919Z,64.17
2019-01-24T06:21:26.526Z,68.57
2019-01-24T06:23:53.058Z,70.07
2019-01-24T06:26:20.005Z,73.00
2019-01-24T06:28:46.793Z,73.33
2019-01-24T06:31:13.342Z,76.63
2019-01-24T06:33:39.893Z,69.83
2019-01-24T06:36:06.433Z,70.83
2019-01-24T06:38:33.292Z,71.90
2019-01-24T06:40:59.845Z,73.70
2019-01-24T06:43:26.420Z,70.40
2019-01-24T06:45:55.058Z,72.97
2019-01-24T06:48:21.595Z,73.30
2019-01-24T06:50:54.520Z,64.17
2019-01-24T06:53:21.286Z,64.57
2019-01-24T06:55:48.398Z,80.57
2019-01-24T06:58:14.982Z,75.90
2019-01-24T07:00:41.506Z,72.07
2019-01-24T07:03:08.019Z,67.53
2019-01-24T07:05:35.237Z,81.87
2019-01-24T07:08:01.812Z,74.03
2019-01-24T07:10:28.622Z,73.73
2019-01-24T07:12:55.198Z,67.37
2019-01-24T07:15:22.460Z,75.07
2019-01-24T07:17:49.128Z,75.27
2019-01-24T07:20:16.877Z,69.63
2019-01-24T07:22:43.526Z,73.97
2019-01-24T07:25:13.500Z,77.13
2019-01-24T07:27:40.646Z,75.30
2019-01-24T07:30:09.602Z,80.30
2019-01-24T07:32:36.547Z,79.93
2019-01-24T07:35:04.815Z,73.23
2019-01-24T07:37:31.555Z,77.30
2019-01-24T07:39:58.113Z,80.10
2019-01-24T07:42:29.307Z,82.10
2019-01-24T07:44:55.937Z,66.97
2019-01-24T07:47:22.950Z,78.57
2019-01-24T07:49:49.449Z,88.57
2019-01-24T07:52:17.457Z,73.70
2019-01-24T07:54:44.345Z,72.73
2019-01-24T07:57:10.900Z,80.37
2019-01-24T07:59:37.957Z,81.97
2019-01-24T08:02:04.610Z,73.83
2019-01-24T08:04:31.275Z,83.70
2019-01-24T08:06:58.151Z,80.57
2019-01-24T08:09:24.792Z,81.10
2019-01-24T08:11:51.479Z,96.97
2019-01-24T08:14:18.379Z,107.93
2019-01-24T08:16:45.446Z,100.53
2019-01-24T08:19:12.179Z,82.87
2019-01-24T08:21:38.803Z,73.93
2019-01-24T08:24:05.433Z,75.77
2019-01-24T08:26:32.251Z,68.47
2019-01-24T08:28:59.043Z,70.97
2019-01-24T08:31:27.533Z,73.90
2019-01-24T08:33:54.263Z,74.07
2019-01-24T08:36:20.982Z,74.07
2019-01-24T08:38:50.335Z,85.23
2019-01-24T08:41:17.210Z,76.07
2019-01-24T08:43:43.893Z,76.73
2019-01-24T08:46:20.303Z,78.50
2019-01-24T08:48:47.397Z,106.03
2019-01-24T08:51:13.935Z,117.03
2019-01-24T08:53:40.482Z,99.70
2019-01-24T08:56:07.482Z,90.70
2019-01-24T08:58:34.268Z,79.57
2019-01-24T09:01:00.774Z,80.97
2019-01-24T09:03:27.787Z,76.07
2019-01-24T09:05:54.401Z,88.30
2019-01-24T09:08:20.928Z,71.93
2019-01-24T09:10:47.627Z,78.00
2019-01-24T09:13:14.161Z,74.33
2019-01-24T09:15:40.636Z,68.60
2019-01-24T09:18:07.871Z,71.30
2019-01-24T09:20:34.841Z,74.30
2019-01-24T09:23:01.871Z,76.43
2019-01-24T09:25:28.775Z,70.07
2019-01-24T09:27:55.459Z,83.30
2019-01-24T09:30:23.261Z,67.10
2019-01-24T09:32:49.826Z,69.63
2019-01-24T09:35:16.502Z,72.50
2019-01-24T09:37:43.056Z,78.20
2019-01-24T09:40:10.824Z,75.43
2019-01-24T09:42:39.448Z,72.53
2019-01-24T09:45:08.919Z,79.73
2019-01-24T09:47:35.450Z,71.30
2019-01-24T09:50:06.305Z,69.20
2019-01-24T09:52:33.190Z,67.90
2019-01-24T09:54:59.832Z,74.73
2019-01-24T09:57:26.777Z,68.93
2019-01-24T09:59:53.501Z,69.03
2019-01-24T10:02:20.339Z,64.00
2019-01-24T10:04:47.069Z,76.20
2019-01-24T10:07:13.654Z,67.63
2019-01-24T10:09:40.535Z,75.30
2019-01-24T10:12:07.574Z,72.40
2019-01-24T10:14:34.462Z,70.47
2019-01-24T10:17:00.955Z,68.93
2019-01-24T10:19:27.662Z,67.33
2019-01-24T10:21:54.201Z,69.73
2019-01-24T10:24:21.352Z,72.63
2019-01-24T10:26:47.930Z,76.67
2019-01-24T10:29:14.575Z,78.27
2019-01-24T10:31:41.280Z,70.60
2019-01-24T10:34:07.961Z,68.33
2019-01-24T10:36:43.113Z,66.90
2019-01-24T10:39:09.062Z,62.20
2019-01-24T10:41:35.556Z,73.07
2019-01-24T10:44:02.367Z,59.70
2019-01-24T10:46:29.251Z,51.73
2019-01-24T10:48:57.123Z,60.83
2019-01-24T10:51:27.011Z,56.60
2019-01-24T10:53:53.575Z,59.57
2019-01-24T10:56:20.394Z,60.47
2019-01-24T10:58:47.036Z,57.57
2019-01-24T11:01:13.779Z,62.00
2019-01-24T11:03:40.428Z,53.77
2019-01-24T11:06:24.936Z,55.83
2019-01-24T11:08:55.355Z,59.83
2019-01-24T11:11:22.620Z,57.03
2019-01-24T11:13:49.251Z,63.87
2019-01-24T11:16:15.739Z,61.60
2019-01-24T11:18:42.368Z,62.73
2019-01-24T11:21:09.063Z,55.47
2019-01-24T11:23:35.927Z,57.00
2019-01-24T11:26:03.686Z,60.20
2019-01-24T11:28:30.640Z,55.37
2019-01-24T11:30:57.287Z,61.00
2019-01-24T11:33:24.056Z,55.93
2019-01-24T11:35:51.082Z,57.23
2019-01-24T11:38:17.727Z,56.50
2019-01-24T11:40:48.433Z,62.30
2019-01-24T11:43:15.491Z,62.20
2019-01-24T11:45:42.961Z,56.60
2019-01-24T11:48:09.900Z,60.50
2019-01-24T11:50:36.479Z,60.93
2019-01-24T11:53:03.915Z,61.23
2019-01-24T11:55:30.538Z,63.10
2019-01-24T11:57:57.439Z,56.13
2019-01-24T12:00:32.196Z,57.40
2019-01-24T12:02:58.780Z,63.90
2019-01-24T12:05:25.547Z,58.80
2019-01-24T12:07:52.238Z,61.00
2019-01-24T12:10:20.553Z,63.83
2019-01-24T12:12:47.068Z,59.97
2019-01-24T12:15:15.388Z,55.80
2019-01-24T12:17:42.245Z,57.20
2019-01-24T12:20:11.930Z,67.53
2019-01-24T12:22:38.466Z,64.57
2019-01-24T12:25:05.761Z,63.43
2019-01-24T12:27:32.518Z,66.23
2019-01-24T12:29:59.247Z,60.67
2019-01-24T12:32:26.359Z,60.43
2019-01-24T12:34:52.878Z,68.30
2019-01-24T12:37:19.474Z,63.73
2019-01-24T12:39:46.305Z,63.90
2019-01-24T12:42:12.791Z,62.80
2019-01-24T12:44:39.352Z,64.03
2019-01-24T12:47:05.868Z,66.93
2019-01-24T12:49:32.513Z,70.87
2019-01-24T12:51:58.988Z,60.67
2019-01-24T12:54:25.833Z,67.37
2019-01-24T12:56:52.682Z,66.63
2019-01-24T12:59:19.635Z,63.30
2019-01-24T13:01:46.131Z,67.73
2019-01-24T13:04:12.883Z,66.63
2019-01-24T13:06:39.682Z,59.90
2019-01-24T13:09:06.727Z,65.20
2019-01-24T13:11:35.688Z,61.53
2019-01-24T13:14:02.614Z,65.43
2019-01-24T13:16:29.252Z,76.10
2019-01-24T13:18:56.072Z,67.80
2019-01-24T13:21:22.693Z,67.53
2019-01-24T13:23:49.184Z,69.67
2019-01-24T13:26:15.981Z,67.43
2019-01-24T13:28:43.035Z,69.80
2019-01-24T13:31:10.300Z,63.63
2019-01-24T13:33:37.036Z,72.70
2019-01-24T13:36:06.596Z,64.27
2019-01-24T13:38:33.552Z,71.43
2019-01-24T13:41:00.368Z,67.90
2019-01-24T13:43:29.322Z,68.87
2019-01-24T13:45:55.864Z,75.57
2019-01-24T13:48:22.453Z,71.77
2019-01-24T13:50:49.060Z,73.53
2019-01-24T13:53:15.655Z,71.77
2019-01-24T13:55:42.524Z,70.93
2019-01-24T13:58:09.553Z,66.43
2019-01-24T14:00:38.150Z,71.80
2019-01-24T14:03:17.409Z,76.30
2019-01-24T14:05:44.013Z,79.37
2019-01-24T14:08:10.875Z,66.97
2019-01-24T14:10:37.626Z,64.40
2019-01-24T14:13:04.535Z,65.73
2019-01-24T14:15:31.554Z,74.63
2019-01-24T14:17:58.388Z,70.00
2019-01-24T14:20:24.946Z,66.80
2019-01-24T14:22:51.972Z,70.03
2019-01-24T14:25:18.618Z,72.37
2019-01-24T14:27:45.424Z,69.20
2019-01-24T14:30:15.548Z,64.03
2019-01-24T14:36:25.464Z,73.57
2019-01-24T14:38:50.421Z,70.33
2019-01-24T14:41:16.924Z,76.97
2019-01-24T14:43:43.642Z,74.73
2019-01-24T14:46:10.188Z,68.23
2019-01-24T14:48:36.826Z,72.10
2019-01-24T14:51:04.627Z,75.13
2019-01-24T14:53:31.185Z,69.93
2019-01-24T14:55:58.022Z,77.63
2019-01-24T14:58:24.669Z,67.53
2019-01-24T15:01:02.110Z,72.07
2019-01-24T15:03:29.531Z,69.30
2019-01-24T15:05:56.401Z,69.47
2019-01-24T15:08:24.286Z,71.57
2019-01-24T15:10:52.919Z,77.10
2019-01-24T15:13:19.586Z,70.13
2019-01-24T15:15:46.200Z,74.20
2019-01-24T15:18:12.896Z,72.40
2019-01-24T15:20:39.672Z,73.30
2019-01-24T15:23:07.380Z,76.23
2019-01-24T15:25:34.049Z,73.43
2019-01-24T15:28:00.617Z,67.03
2019-01-24T15:30:27.766Z,68.27
2019-01-24T15:32:54.595Z,78.17
2019-01-24T15:35:21.089Z,76.17
2019-01-24T15:37:54.080Z,74.13
2019-01-24T15:40:18.728Z,76.50
2019-01-24T15:42:45.385Z,71.00
2019-01-24T15:45:12.507Z,78.73
2019-01-24T15:47:39.146Z,72.90
2019-01-24T15:50:07.201Z,81.03
2019-01-24T15:52:34.236Z,74.83
2019-01-24T15:55:01.973Z,76.70
2019-01-24T15:57:28.905Z,77.00
2019-01-24T15:59:56.581Z,76.67
2019-01-24T16:02:23.361Z,72.03
2019-01-24T16:04:49.948Z,72.37
2019-01-24T16:07:16.800Z,71.20
2019-01-24T16:09:43.363Z,81.57
2019-01-24T16:12:09.881Z,64.00
2019-01-24T16:14:36.463Z,71.07
2019-01-24T16:17:03.424Z,66.77
2019-01-24T16:19:30.261Z,70.40
2019-01-24T16:21:56.819Z,71.80
2019-01-24T16:24:23.491Z,69.50
2019-01-24T16:26:50.126Z,71.90
2019-01-24T16:29:16.630Z,70.83
2019-01-24T16:31:43.425Z,73.53
2019-01-24T16:34:10.444Z,72.70
2019-01-24T16:36:36.970Z,70.43
2019-01-24T16:39:07.092Z,68.17
2019-01-24T16:41:33.775Z,70.80
2019-01-24T16:44:00.348Z,80.90
2019-01-24T16:46:26.960Z,73.30
2019-01-24T16:48:53.618Z,74.53
2019-01-24T16:51:21.644Z,75.00
2019-01-24T16:53:48.346Z,73.17
2019-01-24T16:56:19.478Z,69.07
2019-01-24T16:58:46.243Z,65.03
2019-01-24T17:01:22.265Z,72.93
2019-01-24T17:03:49.015Z,64.30
2019-01-24T17:06:16.026Z,65.33
2019-01-24T17:08:43.336Z,61.67
2019-01-24T17:11:10.247Z,60.67
2019-01-24T17:13:36.879Z,65.67
2019-01-24T17:16:03.919Z,59.53
2019-01-24T17:18:30.732Z,63.17
2019-01-24T17:20:57.336Z,64.77
2019-01-24T17:23:23.996Z,63.60
2019-01-24T17:25:50.608Z,60.17
2019-01-24T17:28:17.227Z,74.53
2019-01-24T17:30:44.062Z,63.90
2019-01-24T17:33:10.691Z,62.87
2019-01-24T17:35:37.208Z,65.47
2019-01-24T17:38:04.011Z,65.27
2019-01-24T17:40:30.821Z,64.03
2019-01-24T17:42:57.599Z,71.03
2019-01-24T17:45:24.647Z,65.30
2019-01-24T17:47:51.346Z,69.50
2019-01-24T17:50:18.034Z,62.27
2019-01-24T17:52:44.726Z,61.33
2019-01-24T17:55:17.142Z,67.83
2019-01-24T17:57:44.073Z,67.47
2019-01-24T18:00:15.233Z,65.10
2019-01-24T18:02:42.920Z,59.93
2019-01-24T18:05:10.236Z,66.77
2019-01-24T18:07:36.835Z,64.10
2019-01-24T18:10:14.055Z,67.77
2019-01-24T18:12:36.495Z,72.00
2019-01-24T18:15:06.501Z,70.50
2019-01-24T18:17:33.025Z,64.67
2019-01-24T18:19:59.863Z,61.13
2019-01-24T18:22:26.580Z,70.97
2019-01-24T18:24:53.120Z,67.60
2019-01-24T18:27:19.995Z,65.03
2019-01-24T18:29:46.532Z,66.97
2019-01-24T18:32:13.408Z,59.63
2019-01-24T18:34:40.086Z,66.13
2019-01-24T18:37:06.822Z,65.70
2019-01-24T18:39:33.365Z,62.73
2019-01-24T18:42:00.921Z,58.37
2019-01-24T18:44:27.682Z,57.87
2019-01-24T18:46:54.288Z,71.73
2019-01-24T18:49:21.577Z,55.70
2019-01-24T18:51:48.165Z,64.00
2019-01-24T18:54:14.771Z,63.13
2019-01-24T18:56:41.679Z,72.63
2019-01-24T18:59:08.624Z,69.03
2019-01-24T19:01:35.457Z,74.73
2019-01-24T19:04:02.017Z,73.37
2019-01-24T19:06:29.599Z,72.77
2019-01-24T19:08:56.294Z,70.10
2019-01-24T19:11:27.159Z,70.70
2019-01-24T19:13:57.045Z,79.03
2019-01-24T19:16:24.921Z,72.20
2019-01-24T19:18:53.958Z,61.33
2019-01-24T19:21:26.842Z,68.50
2019-01-24T19:23:56.789Z,68.07
2019-01-24T19:26:23.356Z,64.73
2019-01-24T19:28:50.102Z,65.83
2019-01-24T19:31:16.812Z,68.47
2019-01-24T19:33:46.308Z,66.20
2019-01-24T19:36:15.999Z,60.10
2019-01-24T19:38:45.174Z,60.10
2019-01-24T19:41:14.470Z,62.73
2019-01-24T19:43:43.752Z,62.07
2019-01-24T19:46:10.621Z,65.07
2019-01-24T19:48:40.576Z,64.10
2019-01-24T19:51:07.392Z,63.97
2019-01-24T19:53:34.966Z,61.37
2019-01-24T19:56:06.139Z,59.37
2019-01-24T19:58:37.578Z,59.00
2019-01-24T20:01:09.877Z,56.87
2019-01-24T20:03:37.152Z,63.10
2019-01-24T20:06:10.157Z,60.70
2019-01-24T20:08:36.995Z,66.40
2019-01-24T20:11:06.864Z,62.27
2019-01-24T20:13:36.845Z,63.00
2019-01-24T20:16:07.215Z,76.03
2019-01-24T20:18:37.034Z,71.00
2019-01-24T20:21:06.891Z,73.33
2019-01-24T20:23:37.013Z,74.73
2019-01-24T20:26:09.825Z,71.00
2019-01-24T20:28:37.819Z,72.10
2019-01-24T20:31:08.352Z,73.87
2019-01-24T20:33:36.385Z,73.60
2019-01-24T20:36:07.811Z,73.07
2019-01-24T20:38:37.919Z,70.13
2019-01-24T20:41:05.177Z,68.17
2019-01-24T20:43:36.858Z,71.30
2019-01-24T20:46:04.285Z,76.13
2019-01-24T20:48:34.323Z,72.20
2019-01-24T20:51:04.170Z,75.10
2019-01-24T20:53:31.559Z,81.60
2019-01-24T20:55:58.342Z,70.30
2019-01-24T20:58:33.914Z,64.03
2019-01-24T21:01:06.600Z,73.90
2019-01-24T21:03:35.485Z,80.40
2019-01-24T21:06:04.310Z,82.73
2019-01-24T21:08:34.192Z,70.30
2019-01-24T21:11:00.658Z,73.53
2019-01-24T21:13:29.667Z,68.50
2019-01-24T21:15:58.433Z,72.33
2019-01-24T21:18:25.457Z,77.03
2019-01-24T21:20:55.499Z,79.47
2019-01-24T21:23:25.243Z,73.50
2019-01-24T21:25:54.490Z,78.03
2019-01-24T21:28:24.344Z,66.40
2019-01-24T21:30:55.450Z,76.73
2019-01-24T21:33:24.703Z,80.10
2019-01-24T21:35:54.766Z,74.17
2019-01-24T21:38:21.859Z,77.97
2019-01-24T21:40:50.245Z,73.30
2019-01-24T21:43:25.530Z,77.93
2019-01-24T21:45:53.268Z,69.47
2019-01-24T21:48:20.002Z,78.23
2019-01-24T21:50:46.751Z,73.03
2019-01-24T21:53:13.413Z,73.13
2019-01-24T21:55:40.236Z,74.03
2019-01-24T21:58:07.562Z,68.73
2019-01-24T22:00:34.280Z,76.40
2019-01-24T22:03:00.987Z,74.13
2019-01-24T22:05:30.636Z,73.07
2019-01-24T22:07:57.310Z,69.40
2019-01-24T22:10:25.249Z,72.17
2019-01-24T22:12:52.218Z,71.90
2019-01-24T22:15:20.815Z,78.47
2019-01-24T22:17:49.562Z,74.37
2019-01-24T22:20:16.695Z,68.27
2019-01-24T22:22:43.711Z,72.53
2019-01-24T22:25:15.926Z,76.83
2019-01-24T22:27:42.543Z,73.70
2019-01-24T22:30:13.577Z,70.60
2019-01-24T22:32:40.121Z,69.53
2019-01-24T22:35:06.937Z,79.37
2019-01-24T22:37:33.916Z,72.57
2019-01-24T22:40:00.994Z,79.73
2019-01-24T22:42:27.801Z,78.77
2019-01-24T22:44:55.902Z,75.60
2019-01-24T22:47:22.568Z,76.93
2019-01-24T22:49:49.132Z,70.43
2019-01-24T22:52:16.062Z,76.00
2019-01-24T22:54:42.735Z,70.17
2019-01-24T22:57:09.227Z,73.30
2019-01-24T22:59:36.950Z,66.37
2019-01-24T23:02:25.938Z,73.90
2019-01-24T23:04:52.543Z,71.30
2019-01-24T23:07:19.530Z,69.17
2019-01-24T23:09:46.422Z,72.70
2019-01-24T23:12:13.063Z,71.70
2019-01-24T23:14:39.608Z,72.53
2019-01-24T23:17:06.967Z,74.47
2019-01-24T23:19:33.618Z,79.27
2019-01-24T23:22:00.231Z,77.97
2019-01-24T23:24:28.885Z,77.03
2019-01-24T23:26:55.495Z,75.03
2019-01-24T23:29:22.117Z,69.77
2019-01-24T23:31:49.825Z,81.77
2019-01-24T23:34:16.951Z,82.00
2019-01-24T23:36:43.903Z,78.50
2019-01-24T23:39:10.759Z,90.20
2019-01-24T23:41:37.523Z,81.27
2019-01-24T23:44:04.784Z,77.77
2019-01-24T23:46:31.364Z,79.53
2019-01-24T23:48:57.853Z,70.40
2019-01-24T23:51:24.514Z,73.87
2019-01-24T23:53:51.486Z,83.23
2019-01-24T23:56:18.234Z,73.27
2019-01-24T23:58:44.767Z,79.30
